Time;durP1;ratioP1;P1;durP2;ratioP2;P2;SDS_P1;SDS_P2;PMS_P1;PMS_P2;Temp;Humidity;BMP_temperature;BMP_pressure;BME280_temperature;BME280_humidity;BME280_pressure;Samples;Min_cycle;Max_cycle;Signal;HPM_P1;HPM_P2
2023/08/08 00:02:39;;;;;;;3.42;1.88;;;;;;;13.84;81.78;100672.75;5095801;28;20082;-71
2023/08/08 00:05:42;;;;;;;5.22;1.23;;;;;;;13.86;81.76;100681.38;5095825;28;20074;-71
2023/08/08 00:08:46;;;;;;;9.68;1.30;;;;;;;13.84;81.81;100672.75;5095689;28;20074;-71
2023/08/08 00:11:49;;;;;;;8.93;1.85;;;;;;;13.90;81.67;100677.63;5095890;28;20451;-71
2023/08/08 00:14:52;;;;;;;5.47;1.60;;;;;;;13.98;81.37;100677.97;5095596;28;20054;-72
2023/08/08 00:17:56;;;;;;;8.45;1.58;;;;;;;13.92;81.74;100670.47;5095539;28;20039;-71
2023/08/08 00:20:59;;;;;;;7.15;1.52;;;;;;;13.85;81.87;100669.19;5095486;28;20039;-71
2023/08/08 00:24:03;;;;;;;3.33;1.40;;;;;;;13.97;81.93;100668.38;5095446;28;20047;-71
2023/08/08 00:27:06;;;;;;;6.55;1.67;;;;;;;13.87;82.20;100662.03;5095278;28;20042;-72
2023/08/08 00:30:13;;;;;;;5.65;1.60;;;;;;;13.84;82.29;100668.31;5094552;28;20122;-71
2023/08/08 00:33:16;;;;;;;8.52;1.50;;;;;;;13.77;82.45;100666.19;5095267;28;20404;-71
2023/08/08 00:36:20;;;;;;;8.27;1.45;;;;;;;13.72;82.46;100667.34;5095294;28;20046;-71
2023/08/08 00:39:24;;;;;;;5.53;1.35;;;;;;;13.73;83.04;100666.38;5095172;28;20035;-71
2023/08/08 00:42:27;;;;;;;3.80;1.27;;;;;;;13.67;82.85;100665.94;5094989;28;20055;-71
2023/08/08 00:45:30;;;;;;;8.30;1.40;;;;;;;13.68;83.06;100660.56;5094233;28;20039;-72
2023/08/08 00:48:34;;;;;;;6.40;1.60;;;;;;;13.77;82.71;100655.69;5094062;28;20515;-71
2023/08/08 00:51:37;;;;;;;5.78;1.58;;;;;;;13.83;82.52;100650.03;5094884;28;20113;-72
2023/08/08 00:54:41;;;;;;;4.68;1.95;;;;;;;13.88;81.66;100647.94;5094794;28;20046;-72
2023/08/08 00:57:45;;;;;;;4.05;1.27;;;;;;;13.76;81.97;100651.38;5094532;28;20044;-72
2023/08/08 01:00:48;;;;;;;6.22;1.38;;;;;;;13.75;82.25;100647.03;5093977;28;20074;-72
2023/08/08 01:03:53;;;;;;;6.47;1.33;;;;;;;13.78;82.48;100641.59;5094928;28;20108;-72
2023/08/08 01:07:12;;;;;;;8.18;1.63;;;;;;;13.79;82.23;100638.03;5094618;28;20131;-72
2023/08/08 01:10:19;;;;;;;9.35;1.60;;;;;;;13.72;82.46;100642.84;5094731;28;20047;-72
2023/08/08 01:13:27;;;;;;;4.55;1.45;;;;;;;13.62;82.69;100645.19;5094503;28;20100;-71
2023/08/08 01:16:31;;;;;;;8.25;1.08;;;;;;;13.63;82.64;100636.38;5094683;28;20538;-71
2023/08/08 01:19:35;;;;;;;5.80;1.38;;;;;;;13.71;82.74;100635.88;5094393;28;20073;-71
2023/08/08 01:23:09;;;;;;;6.22;1.42;;;;;;;13.72;82.38;100638.44;5093562;28;20088;-71
2023/08/08 01:26:13;;;;;;;13.65;1.90;;;;;;;13.75;81.64;100636.53;5105623;27;20051;-71
2023/08/08 01:29:16;;;;;;;8.57;1.50;;;;;;;13.67;81.88;100644.91;5093338;28;20124;-71
2023/08/08 01:36:09;;;;;;;4.63;1.50;;;;;;;13.51;82.67;100633.69;4909738;29;20497;-79
2023/08/08 01:40:00;;;;;;;5.63;1.20;;;;;;;13.55;82.50;100615.00;4887476;29;20504;-79
2023/08/08 01:43:04;;;;;;;5.80;1.35;;;;;;;13.59;82.45;100619.13;4921280;29;20066;-78
2023/08/08 01:46:09;;;;;;;7.93;1.88;;;;;;;13.64;81.80;100626.72;4915042;29;20558;-78
2023/08/08 01:49:15;;;;;;;11.52;1.50;;;;;;;13.65;81.96;100623.97;4923858;29;20043;-78
2023/08/08 01:52:19;;;;;;;3.97;1.45;;;;;;;13.51;81.60;100629.28;4924418;29;20099;-78
2023/08/08 01:55:23;;;;;;;6.55;1.50;;;;;;;13.41;81.99;100622.91;4908695;29;20047;-79
2023/08/08 01:58:29;;;;;;;7.25;1.23;;;;;;;13.41;82.10;100628.16;4911546;29;20091;-79
2023/08/08 02:01:32;;;;;;;6.70;1.10;;;;;;;13.47;81.85;100619.91;4913395;29;20067;-80
2023/08/08 02:04:35;;;;;;;5.28;1.10;;;;;;;13.42;81.82;100614.09;4925777;29;20051;-80
2023/08/08 02:07:39;;;;;;;8.48;2.10;;;;;;;13.46;82.09;100607.69;4914661;29;20083;-80
2023/08/08 02:14:36;;;;;;;9.18;1.10;;;;;;;13.25;82.14;100613.34;4867660;29;19950;-79
2023/08/08 02:17:39;;;;;;;9.55;1.35;;;;;;;13.33;82.13;100614.66;4867955;29;20054;-80
2023/08/08 02:20:42;;;;;;;7.03;1.40;;;;;;;13.24;81.79;100601.19;4869744;29;20105;-78
2023/08/08 02:23:46;;;;;;;7.28;1.58;;;;;;;13.15;82.01;100595.63;4864872;29;20102;-79
2023/08/08 02:26:50;;;;;;;7.22;1.80;;;;;;;13.11;82.26;100608.06;4866777;29;20514;-79
2023/08/08 02:29:57;;;;;;;5.75;1.33;;;;;;;13.00;82.44;100603.47;4867839;29;20122;-79
2023/08/08 02:33:00;;;;;;;4.95;1.25;;;;;;;12.94;82.79;100597.78;4869371;29;20060;-78
2023/08/08 02:36:04;;;;;;;12.73;2.33;;;;;;;12.89;83.16;100603.31;4869541;29;20529;-81
2023/08/08 02:39:14;;;;;;;4.90;1.40;;;;;;;12.89;83.24;100613.81;4864973;29;20065;-81
2023/08/08 02:42:19;;;;;;;3.72;1.10;;;;;;;12.91;83.36;100608.44;4864990;29;20609;-81
2023/08/08 02:45:24;;;;;;;4.18;1.73;;;;;;;12.94;83.24;100603.03;4869588;29;20207;-81
2023/08/08 02:48:31;;;;;;;5.03;1.17;;;;;;;12.93;83.10;100606.59;4856557;29;20056;-81
2023/08/08 02:51:35;;;;;;;5.65;1.58;;;;;;;12.99;82.92;100616.72;4867091;29;20067;-79
2023/08/08 02:54:38;;;;;;;6.97;2.15;;;;;;;13.01;82.75;100620.06;4867844;29;20070;-79
2023/08/08 02:57:45;;;;;;;9.80;1.90;;;;;;;12.97;82.64;100610.72;4864550;29;20448;-79
2023/08/08 03:00:49;;;;;;;12.77;1.92;;;;;;;12.92;82.52;100610.13;4866400;29;20043;-79
2023/08/08 03:03:54;;;;;;;10.18;1.75;;;;;;;12.83;82.98;100615.94;4866649;29;20418;-79
2023/08/08 03:07:03;;;;;;;5.13;1.60;;;;;;;12.83;82.98;100602.81;4868134;29;20214;-79
2023/08/08 03:10:08;;;;;;;8.77;2.20;;;;;;;12.79;82.97;100605.66;4865292;29;20072;-78
2023/08/08 03:13:13;;;;;;;7.15;1.50;;;;;;;12.76;83.14;100600.59;4847502;29;20179;-78
2023/08/08 03:16:21;;;;;;;6.65;1.65;;;;;;;12.78;83.20;100598.69;4848752;29;20094;-79
2023/08/08 03:19:24;;;;;;;9.55;1.55;;;;;;;12.70;82.93;100600.94;4849978;29;20048;-79
2023/08/08 03:22:28;;;;;;;11.70;1.55;;;;;;;12.76;82.39;100605.84;4847008;29;20126;-79
2023/08/08 03:25:32;;;;;;;5.35;1.48;;;;;;;12.78;82.63;100592.59;4847319;29;20077;-79
2023/08/08 03:28:35;;;;;;;;;;;;;;;12.64;82.70;100587.34;4859228;29;20102;-79
2023/08/08 03:31:38;;;;;;;4.05;1.63;;;;;;;12.61;83.07;100591.00;4852559;29;19988;-79
2023/08/08 03:34:42;;;;;;;5.53;1.60;;;;;;;12.60;83.06;100597.16;4853814;29;20531;-79
2023/08/08 03:37:49;;;;;;;8.85;1.50;;;;;;;12.63;82.78;100594.34;4850160;29;20040;-79
2023/08/08 03:40:54;;;;;;;7.25;1.48;;;;;;;12.70;82.49;100593.06;4851445;29;20583;-80
2023/08/08 03:43:59;;;;;;;4.20;1.23;;;;;;;12.73;82.11;100594.66;4863256;29;20518;-79
2023/08/08 03:47:03;;;;;;;9.85;1.42;;;;;;;12.67;82.14;100598.50;4853200;29;20113;-79
2023/08/08 03:50:08;;;;;;;4.28;1.10;;;;;;;12.68;82.48;100594.09;4849897;29;20065;-79
2023/08/08 03:53:13;;;;;;;7.25;1.40;;;;;;;12.56;82.46;100593.03;4850481;29;20045;-81
2023/08/08 03:56:16;;;;;;;9.00;1.48;;;;;;;12.51;82.75;100584.63;4851274;29;20170;-79
2023/08/08 03:59:19;;;;;;;14.65;1.73;;;;;;;12.55;82.75;100589.59;4852364;29;20045;-80
2023/08/08 04:02:22;;;;;;;3.95;1.30;;;;;;;12.46;82.71;100586.66;4853520;29;20109;-79
2023/08/08 04:05:27;;;;;;;5.47;1.70;;;;;;;12.53;82.95;100582.72;4850930;29;20053;-79
2023/08/08 04:08:31;;;;;;;4.55;1.35;;;;;;;12.49;82.82;100589.09;4848872;29;20065;-79
2023/08/08 04:11:35;;;;;;;;;;;;;;;12.42;83.07;100596.50;4851198;29;20098;-81
2023/08/08 04:14:38;;;;;;;10.10;1.70;;;;;;;12.46;83.02;100587.50;4876684;29;19990;-80
2023/08/08 04:17:42;;;;;;;8.93;1.17;;;;;;;12.45;82.69;100584.97;4889440;29;20059;-80
2023/08/08 04:20:49;;;;;;;5.60;1.33;;;;;;;12.43;82.81;100576.34;4889447;29;20162;-79
2023/08/08 04:23:52;;;;;;;7.32;1.35;;;;;;;12.48;82.54;100584.81;4875018;29;20056;-79
2023/08/08 04:26:55;;;;;;;3.95;1.23;;;;;;;12.41;82.55;100588.69;4887162;29;20048;-80
2023/08/08 04:29:59;;;;;;;4.15;1.20;;;;;;;12.41;82.64;100588.69;4888306;29;20480;-81
2023/08/08 04:33:04;;;;;;;6.45;1.10;;;;;;;12.39;82.93;100585.34;4889075;29;20095;-73
2023/08/08 04:36:07;;;;;;;8.68;1.42;;;;;;;12.34;82.74;100594.28;4887539;29;20075;-72
2023/08/08 04:39:10;;;;;;;4.85;0.90;;;;;;;12.27;82.64;100592.97;4885688;29;20036;-73
2023/08/08 04:42:15;;;;;;;5.22;1.45;;;;;;;12.32;82.90;100582.25;4885969;29;20048;-76
2023/08/08 04:45:20;;;;;;;4.38;1.20;;;;;;;12.30;82.67;100577.06;4888305;29;20414;-78
2023/08/08 04:48:24;;;;;;;6.57;1.30;;;;;;;12.23;82.84;100570.50;4886142;29;20051;-78
2023/08/08 04:51:27;;;;;;;5.93;1.20;;;;;;;12.24;82.97;100566.94;4870670;29;20059;-78
2023/08/08 04:54:35;;;;;;;9.10;2.45;;;;;;;12.22;83.18;100573.19;4887540;29;20048;-77
2023/08/08 04:57:38;;;;;;;;;;;;;;;12.25;83.32;100573.03;4885544;29;20043;-78
2023/08/08 05:00:47;;;;;;;4.50;1.63;;;;;;;12.28;83.02;100571.09;4891842;29;19968;-78
2023/08/08 05:03:51;;;;;;;6.25;1.30;;;;;;;12.31;83.01;100562.19;4897248;29;20063;-78
2023/08/08 05:06:54;;;;;;;6.35;1.02;;;;;;;12.26;82.97;100559.84;4896145;29;20082;-78
2023/08/08 05:09:58;;;;;;;3.75;1.05;;;;;;;12.31;83.23;100567.41;4896063;29;20135;-78
2023/08/08 05:13:02;;;;;;;;;;;;;;;12.25;83.42;100568.66;4895937;29;20062;-78
2023/08/08 05:16:06;;;;;;;6.57;0.90;;;;;;;12.27;83.55;100566.75;4893930;29;19964;-78
2023/08/08 05:19:09;;;;;;;2.85;0.90;;;;;;;12.34;83.55;100568.06;4896368;29;20082;-77
2023/08/08 05:22:12;;;;;;;11.10;1.35;;;;;;;12.37;83.94;100558.34;4896623;29;20151;-78
2023/08/08 05:25:16;;;;;;;;;;;;;;;12.33;83.67;100555.91;4896864;29;20146;-78
2023/08/08 05:28:20;;;;;;;3.45;1.13;;;;;;;12.45;83.69;100559.59;4896173;29;20286;-78
2023/08/08 05:31:24;;;;;;;4.07;1.00;;;;;;;12.52;83.93;100552.19;4896110;29;20067;-76
2023/08/08 05:34:27;;;;;;;4.00;0.90;;;;;;;12.60;84.34;100547.31;4860072;29;20788;-78
2023/08/08 05:37:30;;;;;;;;;;;;;;;12.58;84.50;100554.47;4858773;29;20101;-78
2023/08/08 05:40:58;;;;;;;4.20;0.90;;;;;;;12.60;85.44;100549.94;4857884;29;20416;-75
2023/08/08 05:44:02;;;;;;;10.30;1.55;;;;;;;12.66;85.69;100554.81;4858836;29;20270;-78
2023/08/08 05:47:05;;;;;;;4.55;1.40;;;;;;;12.64;86.08;100554.09;4857839;29;20043;-79
2023/08/08 05:50:10;;;;;;;5.28;1.40;;;;;;;12.83;86.36;100545.09;4857430;29;20052;-79
2023/08/08 05:53:13;;;;;;;4.20;1.33;;;;;;;13.00;85.22;100544.91;4857838;29;20097;-79
2023/08/08 05:56:16;;;;;;;3.30;1.23;;;;;;;13.02;84.10;100549.13;4858984;29;20068;-86
2023/08/08 05:59:20;;;;;;;4.22;1.33;;;;;;;13.13;83.64;100547.59;4859230;29;20044;-76
2023/08/08 06:02:23;;;;;;;3.95;1.08;;;;;;;13.26;82.55;100553.81;4859174;29;20061;-77
2023/08/08 06:05:26;;;;;;;3.28;1.02;;;;;;;13.29;81.93;100555.41;4859229;29;20591;-76
2023/08/08 06:08:34;;;;;;;4.68;1.30;;;;;;;13.39;80.64;100556.50;4859328;29;20093;-77
2023/08/08 06:11:37;;;;;;;6.38;1.33;;;;;;;13.48;80.81;100550.66;4858674;29;20040;-76
2023/08/08 06:14:42;;;;;;;5.25;1.42;;;;;;;13.55;79.60;100545.84;4858486;29;20077;-77
2023/08/08 06:17:45;;;;;;;8.15;1.20;;;;;;;13.57;79.12;100555.31;4859191;29;20411;-78
2023/08/08 06:20:48;;;;;;;6.53;1.10;;;;;;;13.62;77.84;100553.22;4859263;29;20057;-74
2023/08/08 06:23:54;;;;;;;3.55;1.33;;;;;;;13.69;77.63;100553.69;4858884;29;20185;-76
2023/08/08 06:26:58;;;;;;;3.75;1.05;;;;;;;13.70;76.78;100556.22;4859160;29;20053;-74
2023/08/08 06:30:02;;;;;;;5.53;1.20;;;;;;;13.75;75.60;100552.44;4859019;29;20061;-77
2023/08/08 06:33:07;;;;;;;5.57;1.40;;;;;;;13.83;75.03;100555.44;4858949;29;20072;-77
2023/08/08 06:36:10;;;;;;;4.28;0.98;;;;;;;13.91;75.62;100561.00;4857865;29;20465;-78
2023/08/08 06:39:13;;;;;;;5.88;1.50;;;;;;;13.97;74.69;100557.97;4858802;29;20053;-78
2023/08/08 06:42:35;;;;;;;3.45;0.93;;;;;;;14.06;73.78;100541.59;4858789;29;20468;-78
2023/08/08 06:46:01;;;;;;;3.65;1.10;;;;;;;14.16;73.34;100552.34;4858831;29;20072;-77
2023/08/08 06:49:04;;;;;;;4.30;1.48;;;;;;;14.26;72.76;100555.19;4857356;29;20060;-76
2023/08/08 06:52:07;;;;;;;5.38;1.35;;;;;;;14.28;71.81;100554.16;4857918;29;20075;-76
2023/08/08 06:55:18;;;;;;;7.72;1.77;;;;;;;14.31;71.24;100559.22;4858630;29;20052;-77
2023/08/08 06:58:22;;;;;;;4.28;1.25;;;;;;;14.37;71.19;100550.91;4864099;29;20043;-76
2023/08/08 07:01:25;;;;;;;8.18;1.40;;;;;;;14.43;71.05;100561.00;4895238;29;20618;-79
2023/08/08 07:04:30;;;;;;;6.05;1.05;;;;;;;14.71;70.92;100560.94;4898040;29;20176;-77
2023/08/08 07:07:35;;;;;;;7.47;1.48;;;;;;;14.63;69.87;100554.41;4899221;29;20079;-76
2023/08/08 07:10:38;;;;;;;6.05;1.30;;;;;;;14.65;70.18;100555.16;4899596;29;20063;-77
2023/08/08 07:13:41;;;;;;;2.97;1.00;;;;;;;14.67;69.81;100562.09;4899581;29;20054;-77
2023/08/08 07:16:45;;;;;;;3.22;1.23;;;;;;;14.72;69.74;100563.47;4887838;29;20516;-77
2023/08/08 07:19:48;;;;;;;;;;;;;;;14.79;70.23;100550.75;4888768;29;20107;-77
2023/08/08 07:22:51;;;;;;;4.30;1.40;;;;;;;14.89;69.81;100554.41;4899790;29;19923;-77
2023/08/08 07:25:55;;;;;;;5.20;2.17;;;;;;;15.02;69.40;100557.84;4898974;29;20144;-78
2023/08/08 07:28:58;;;;;;;5.35;1.35;;;;;;;15.07;69.18;100547.84;4899229;29;20185;-77
2023/08/08 07:32:04;;;;;;;4.38;1.23;;;;;;;15.22;69.13;100547.69;4899196;29;20092;-76
2023/08/08 07:35:08;;;;;;;6.80;1.10;;;;;;;15.21;68.69;100544.22;4898788;29;20055;-77
2023/08/08 07:38:12;;;;;;;5.50;1.30;;;;;;;15.31;68.97;100547.03;4898239;29;20082;-77
2023/08/08 07:41:16;;;;;;;4.13;1.05;;;;;;;15.31;68.65;100553.16;4898569;29;20105;-77
2023/08/08 07:44:18;;;;;;;2.72;1.13;;;;;;;15.33;68.83;100545.16;4897398;29;20059;-78
2023/08/08 07:47:22;;;;;;;3.65;1.30;;;;;;;15.36;69.32;100544.94;4898117;29;20074;-78
2023/08/08 07:50:25;;;;;;;5.35;1.10;;;;;;;15.52;69.08;100550.78;4898450;29;20063;-78
2023/08/08 07:53:28;;;;;;;4.78;1.60;;;;;;;15.58;68.90;100545.06;4898395;29;20212;-77
2023/08/08 07:56:36;;;;;;;6.38;1.02;;;;;;;15.62;68.76;100553.59;4899024;29;20116;-76
2023/08/08 07:59:39;;;;;;;6.68;1.27;;;;;;;15.68;68.81;100554.97;4898627;29;20039;-74
2023/08/08 08:02:43;;;;;;;3.33;1.50;;;;;;;15.74;68.59;100557.16;4898381;29;20047;-76
2023/08/08 08:05:48;;;;;;;5.07;1.15;;;;;;;15.83;68.83;100542.47;4898687;29;20052;-72
2023/08/08 08:08:51;;;;;;;4.63;1.55;;;;;;;15.85;67.99;100549.28;4898519;29;20109;-78
2023/08/08 08:11:54;;;;;;;6.35;1.15;;;;;;;15.94;68.32;100548.59;4886531;29;20132;-75
2023/08/08 08:15:01;;;;;;;2.70;0.90;;;;;;;15.98;67.70;100552.69;4897504;29;20096;-76
2023/08/08 08:18:07;;;;;;;5.25;1.73;;;;;;;15.94;68.30;100548.59;4898488;29;20044;-78
2023/08/08 08:21:12;;;;;;;4.70;1.40;;;;;;;15.91;68.18;100551.47;4897672;29;20414;-78
2023/08/08 08:24:16;;;;;;;6.30;1.38;;;;;;;15.91;68.01;100540.09;4897653;29;20055;-78
2023/08/08 08:27:20;;;;;;;6.78;2.13;;;;;;;15.89;67.24;100542.84;4897328;29;20486;-79
2023/08/08 08:30:26;;;;;;;3.55;1.17;;;;;;;15.91;67.67;100540.09;4897916;29;20421;-72
2023/08/08 08:33:32;;;;;;;3.92;1.30;;;;;;;15.94;67.57;100539.84;4885044;29;20040;-74
2023/08/08 08:36:36;;;;;;;4.65;1.80;;;;;;;15.92;67.43;100534.72;4897705;29;20550;-72
2023/08/08 08:39:43;;;;;;;5.53;1.40;;;;;;;15.82;66.45;100536.31;4897590;29;20047;-72
2023/08/08 08:42:47;;;;;;;3.67;1.27;;;;;;;15.88;67.25;100535.88;4897751;29;20087;-74
2023/08/08 08:45:53;;;;;;;6.82;1.55;;;;;;;15.86;68.28;100548.34;4898023;29;20052;-73
2023/08/08 08:49:08;;;;;;;2.97;1.63;;;;;;;15.96;67.48;100559.06;4898316;29;20154;-84
2023/08/08 08:52:32;;;;;;;4.43;1.25;;;;;;;15.74;66.90;100536.91;4897510;29;20103;-81
2023/08/08 08:55:41;;;;;;;4.13;1.55;;;;;;;15.78;67.50;100561.25;4897527;29;20093;-76
2023/08/08 08:58:44;;;;;;;2.55;1.13;;;;;;;15.74;67.57;100543.97;4898137;29;20051;-76
2023/08/08 09:01:50;;;;;;;7.43;1.50;;;;;;;15.85;66.89;100536.09;4897804;29;20051;-76
2023/08/08 09:04:56;;;;;;;5.82;1.38;;;;;;;15.87;67.63;100534.19;4897772;29;20054;-76
2023/08/08 09:08:00;;;;;;;4.68;1.52;;;;;;;16.01;67.63;100552.47;4897692;29;20044;-76
2023/08/08 09:11:04;;;;;;;4.72;1.20;;;;;;;16.19;66.70;100549.41;4886212;29;20050;-76
2023/08/08 09:14:25;;;;;;;3.35;1.23;;;;;;;16.30;65.92;100541.50;4897627;29;20071;-76
2023/08/08 09:17:34;;;;;;;4.80;1.65;;;;;;;16.48;64.98;100541.91;4897885;29;20055;-76
2023/08/08 09:20:37;;;;;;;3.35;1.17;;;;;;;16.52;64.06;100532.81;4897764;29;20133;-76
2023/08/08 09:23:41;;;;;;;5.28;1.48;;;;;;;16.56;63.59;100546.59;4897664;29;20084;-76
2023/08/08 09:26:48;;;;;;;4.05;1.30;;;;;;;16.62;63.38;100546.13;4897126;29;20116;-77
2023/08/08 09:29:52;;;;;;;5.80;1.40;;;;;;;16.73;63.26;100548.78;4897793;29;20044;-77
2023/08/08 09:33:01;;;;;;;5.15;1.67;;;;;;;16.68;62.29;100533.28;4897826;29;20161;-76
2023/08/08 09:36:05;;;;;;;5.20;1.42;;;;;;;16.78;63.28;100541.38;4897374;29;20070;-77
2023/08/08 09:39:10;;;;;;;6.75;2.03;;;;;;;16.75;62.78;100538.97;4897742;29;20509;-77
2023/08/08 09:42:14;;;;;;;6.55;1.67;;;;;;;16.75;62.92;100531.03;4897377;29;20089;-76
2023/08/08 09:45:18;;;;;;;5.57;1.55;;;;;;;16.88;62.60;100525.66;4897493;29;20485;-77
2023/08/08 09:48:21;;;;;;;4.80;1.45;;;;;;;16.96;62.57;100521.44;4885460;29;20052;-77
2023/08/08 09:51:26;;;;;;;6.30;1.25;;;;;;;16.99;61.97;100532.75;4897289;29;20463;-77
2023/08/08 09:54:32;;;;;;;5.10;1.50;;;;;;;17.05;61.76;100521.69;4897419;29;20051;-77
2023/08/08 09:57:39;;;;;;;5.90;1.73;;;;;;;17.03;60.73;100513.88;4896866;29;20048;-77
2023/08/08 10:00:44;;;;;;;9.27;1.75;;;;;;;16.93;61.00;100529.63;4897179;29;20095;-76
2023/08/08 10:03:52;;;;;;;7.30;2.28;;;;;;;17.04;60.52;100525.28;4890825;29;20104;-76
2023/08/08 10:06:57;;;;;;;4.35;1.40;;;;;;;17.21;59.97;100538.00;4874641;29;20415;-76
2023/08/08 10:10:00;;;;;;;8.48;1.85;;;;;;;17.24;60.00;100521.91;4874427;29;20044;-77
2023/08/08 10:13:04;;;;;;;6.57;1.88;;;;;;;17.37;60.34;100522.59;4886712;29;20132;-77
2023/08/08 10:16:09;;;;;;;6.72;2.25;;;;;;;17.50;60.03;100511.84;4887760;29;20554;-76
2023/08/08 10:19:22;;;;;;;7.60;1.85;;;;;;;17.54;59.51;100512.44;4885402;29;20452;-75
2023/08/08 10:22:28;;;;;;;6.55;1.45;;;;;;;17.53;59.45;100508.13;4887418;29;20055;-77
2023/08/08 10:25:31;;;;;;;4.25;1.40;;;;;;;17.32;58.87;100530.03;4859338;29;20469;-76
2023/08/08 10:28:37;;;;;;;9.35;1.73;;;;;;;17.56;59.46;100526.38;4857759;29;20111;-75
2023/08/08 10:32:08;;;;;;;7.57;1.90;;;;;;;17.46;58.21;100514.88;4883305;29;20056;-76
2023/08/08 10:35:12;;;;;;;5.85;1.50;;;;;;;17.49;58.62;100527.84;4885674;29;20546;-76
2023/08/08 10:38:15;;;;;;;6.30;2.03;;;;;;;17.31;58.57;100531.00;4884613;29;20147;-74
2023/08/08 10:41:21;;;;;;;5.97;1.90;;;;;;;17.48;58.53;100528.81;4885837;29;20517;-74
2023/08/08 10:44:27;;;;;;;7.25;1.95;;;;;;;17.52;57.20;100524.97;4873925;29;20052;-75
2023/08/08 10:47:34;;;;;;;7.47;1.83;;;;;;;17.59;57.47;100526.13;4889538;29;20066;-75
2023/08/08 10:50:40;;;;;;;3.63;1.30;;;;;;;17.54;57.57;100530.94;4893320;29;20091;-74
2023/08/08 10:53:45;;;;;;;7.22;2.35;;;;;;;17.56;57.64;100519.28;4894644;29;20488;-75
2023/08/08 10:56:57;;;;;;;6.38;1.63;;;;;;;17.68;57.38;100514.81;4884461;29;20662;-72
2023/08/08 11:00:30;;;;;;;8.88;1.60;;;;;;;17.89;57.54;100534.22;4896330;29;20048;-74
2023/08/08 11:03:36;;;;;;;6.00;1.92;;;;;;;17.92;56.11;100519.91;4890709;29;20044;-74
2023/08/08 11:06:40;;;;;;;7.28;1.50;;;;;;;17.95;55.75;100532.03;4885516;29;20797;-75
2023/08/08 11:09:44;;;;;;;5.05;1.63;;;;;;;17.94;55.70;100503.91;4875448;29;20142;-75
2023/08/08 11:13:14;;;;;;;8.23;2.03;;;;;;;18.21;56.21;100501.56;4868319;29;20060;-74
2023/08/08 11:16:17;;;;;;;5.07;1.70;;;;;;;18.19;55.35;100515.91;4877198;29;20092;-74
2023/08/08 11:19:21;;;;;;;5.82;1.80;;;;;;;18.31;55.00;100506.91;4886955;29;20134;-75
2023/08/08 11:22:24;;;;;;;5.47;1.83;;;;;;;18.42;54.87;100503.38;4887762;29;20048;-79
2023/08/08 11:25:30;;;;;;;6.65;1.45;;;;;;;18.38;53.94;100512.53;4890846;29;20486;-74
2023/08/08 11:28:33;;;;;;;6.00;2.00;;;;;;;18.57;54.49;100489.66;4895467;29;20135;-75
2023/08/08 11:31:48;;;;;;;6.07;1.75;;;;;;;18.44;54.27;100481.09;4884474;29;20056;-75
2023/08/08 11:34:53;;;;;;;5.25;1.83;;;;;;;18.57;54.01;100486.19;4896217;29;20044;-76
2023/08/08 11:37:58;;;;;;;5.03;1.77;;;;;;;18.44;53.69;100481.09;4884270;29;20047;-77
2023/08/08 11:41:02;;;;;;;4.05;1.73;;;;;;;18.48;52.70;100487.81;4884210;29;20382;-75
2023/08/08 11:44:08;;;;;;;8.68;2.83;;;;;;;18.54;53.30;100481.16;4895858;29;20153;-73
2023/08/08 11:47:11;;;;;;;6.15;2.00;;;;;;;18.66;52.98;100477.41;4895663;29;20051;-75
2023/08/08 11:50:16;;;;;;;5.22;1.65;;;;;;;18.78;53.67;100473.72;4896205;29;20051;-76
2023/08/08 11:53:23;;;;;;;3.47;1.40;;;;;;;19.11;53.54;100494.72;4899808;29;20069;-78
2023/08/08 11:56:28;;;;;;;4.57;1.38;;;;;;;19.10;53.11;100466.56;4861666;29;20514;-76
2023/08/08 11:59:31;;;;;;;4.78;1.50;;;;;;;19.35;53.10;100475.81;4861922;29;20087;-77
2023/08/08 12:02:35;;;;;;;6.45;1.98;;;;;;;19.17;52.72;100471.19;4861097;29;20522;-76
2023/08/08 12:05:52;;;;;;;7.47;1.60;;;;;;;18.78;53.48;100488.78;4861651;29;20100;-81
2023/08/08 12:08:56;;;;;;;9.60;1.35;;;;;;;18.65;53.01;100477.56;4849991;29;20424;-76
2023/08/08 12:12:01;;;;;;;7.03;2.47;;;;;;;18.56;53.33;100473.88;4861310;29;20060;-77
2023/08/08 12:15:09;;;;;;;8.13;2.83;;;;;;;18.53;53.73;100480.28;4861551;29;20047;-73
2023/08/08 12:18:18;;;;;;;3.90;1.40;;;;;;;18.57;54.35;100475.59;4861424;29;20052;-72
2023/08/08 12:21:21;;;;;;;5.45;1.48;;;;;;;18.38;54.03;100476.34;4861303;29;20056;-75
2023/08/08 12:24:29;;;;;;;4.38;1.25;;;;;;;18.40;54.24;100476.19;4861355;29;20428;-71
2023/08/08 12:27:32;;;;;;;7.45;2.40;;;;;;;18.34;54.14;100470.44;4861110;29;20052;-71
2023/08/08 12:30:39;;;;;;;4.90;1.45;;;;;;;18.27;53.83;100471.94;4861489;29;20533;-83
2023/08/08 12:33:57;;;;;;;4.00;0.98;;;;;;;18.34;54.55;100465.16;4851529;29;20065;-76
2023/08/08 12:37:02;;;;;;;4.47;1.48;;;;;;;18.45;54.28;100455.47;4861184;29;20053;-74
2023/08/08 12:40:06;;;;;;;5.25;1.17;;;;;;;18.48;53.71;100456.03;4860906;29;20105;-77
2023/08/08 12:43:13;;;;;;;5.72;1.50;;;;;;;18.57;54.17;100454.41;4859794;29;20048;-67
2023/08/08 12:46:16;;;;;;;3.10;1.17;;;;;;;18.50;53.80;100453.25;4860844;29;20045;-67
2023/08/08 12:49:19;;;;;;;9.50;1.90;;;;;;;18.47;53.31;100459.63;4861209;29;20073;-71
2023/08/08 12:52:23;;;;;;;4.05;1.40;;;;;;;18.61;53.85;100445.22;4859573;29;20108;-73
2023/08/08 12:55:26;;;;;;;10.10;1.92;;;;;;;18.71;52.81;100448.72;4859111;29;20085;-72
2023/08/08 12:58:30;;;;;;;5.35;1.17;;;;;;;18.70;53.01;100444.41;4858700;29;20040;-73
2023/08/08 13:01:44;;;;;;;3.25;1.27;;;;;;;18.59;52.63;100439.19;4858704;29;20056;-73
2023/08/08 13:04:47;;;;;;;6.53;1.63;;;;;;;18.49;53.15;100440.97;4881802;29;20054;-73
2023/08/08 13:07:54;;;;;;;4.63;1.25;;;;;;;18.52;53.70;100438.06;4886452;29;20048;-74
2023/08/08 13:10:58;;;;;;;7.18;1.55;;;;;;;18.42;54.20;100450.44;4887651;29;20356;-75
2023/08/08 13:14:02;;;;;;;4.20;1.52;;;;;;;18.32;53.47;100445.09;4884939;29;20055;-74
2023/08/08 13:17:06;;;;;;;4.82;1.25;;;;;;;18.34;53.89;100451.91;4887660;29;20146;-74
2023/08/08 13:20:12;;;;;;;4.25;1.30;;;;;;;18.21;53.57;100468.97;4875251;29;20043;-74
2023/08/08 13:23:16;;;;;;;5.70;1.92;;;;;;;18.06;53.29;100460.53;4888394;29;20055;-74
2023/08/08 13:26:20;;;;;;;4.63;1.40;;;;;;;18.19;53.59;100461.19;4875897;29;20760;-73
2023/08/08 13:29:25;;;;;;;8.32;1.00;;;;;;;18.20;53.22;100459.38;4873655;29;20052;-74
2023/08/08 13:32:30;;;;;;;5.65;1.20;;;;;;;18.29;53.00;100446.19;4892101;29;20055;-74
2023/08/08 13:35:43;;;;;;;5.38;1.23;;;;;;;18.54;53.54;100450.22;4897581;29;20426;-74
2023/08/08 13:38:51;;;;;;;3.20;1.10;;;;;;;18.60;52.20;100438.22;4897298;29;20171;-75
2023/08/08 13:41:55;;;;;;;3.35;1.05;;;;;;;18.54;51.88;100444.91;4897077;29;20071;-74
2023/08/08 13:44:59;;;;;;;4.18;1.38;;;;;;;18.54;52.35;100436.97;4896604;29;20051;-74
2023/08/08 13:48:02;;;;;;;5.03;1.27;;;;;;;18.59;51.94;100432.09;4896477;29;20059;-75
2023/08/08 13:51:07;;;;;;;4.45;1.30;;;;;;;18.53;52.02;100434.44;4896693;29;20051;-75
2023/08/08 13:54:13;;;;;;;3.63;1.00;;;;;;;18.43;53.08;100423.81;4896964;29;20493;-75
2023/08/08 13:57:19;;;;;;;6.78;1.50;;;;;;;18.43;52.60;100421.16;4897263;29;20067;-75
2023/08/08 14:00:24;;;;;;;3.53;1.25;;;;;;;18.45;53.53;100424.53;4896835;29;20048;-74
2023/08/08 14:03:32;;;;;;;6.20;1.35;;;;;;;18.40;53.96;100420.59;4896833;29;20047;-74
2023/08/08 14:06:35;;;;;;;5.05;1.50;;;;;;;18.34;54.42;100414.84;4897257;29;20055;-74
2023/08/08 14:09:39;;;;;;;4.43;1.35;;;;;;;18.37;54.79;100416.41;4896820;29;20510;-74
2023/08/08 14:13:07;;;;;;;5.82;1.25;;;;;;;18.35;59.09;100419.19;4892263;29;20088;-74
2023/08/08 14:16:14;;;;;;;4.25;1.05;;;;;;;18.33;60.95;100418.47;4874622;29;20132;-75
2023/08/08 14:19:20;;;;;;;4.57;1.48;;;;;;;18.32;61.84;100418.63;4889060;29;20051;-73
2023/08/08 14:22:24;;;;;;;6.53;1.70;;;;;;;18.25;62.89;100418.31;4882822;29;20079;-74
2023/08/08 14:25:32;;;;;;;4.00;1.27;;;;;;;18.13;64.96;100419.38;4886258;29;20371;-74
2023/08/08 14:28:36;;;;;;;3.95;1.15;;;;;;;18.08;65.01;100424.19;4874657;29;20056;-74
2023/08/08 14:31:44;;;;;;;5.25;1.10;;;;;;;18.01;65.12;100436.28;4883770;29;20047;-74
2023/08/08 14:35:20;;;;;;;7.78;1.40;;;;;;;17.98;65.77;100439.19;4875248;29;20571;-75